createdAt,value
2023-02-02T00:02:02.429Z,83.69
2023-02-02T00:04:37.177Z,83.63
2023-02-02T00:07:09.846Z,83.64
2023-02-02T00:09:41.469Z,83.62
2023-02-02T00:12:11.580Z,83.69
2023-02-02T00:14:43.203Z,83.73
2023-02-02T00:17:13.418Z,83.82
2023-02-02T00:19:46.689Z,83.64
2023-02-02T00:22:18.371Z,83.87
2023-02-02T00:24:48.442Z,83.86
2023-02-02T00:27:20.080Z,83.76
2023-02-02T00:29:53.666Z,83.82
2023-02-02T00:32:25.378Z,83.60
2023-02-02T00:34:55.478Z,83.85
2023-02-02T00:37:27.172Z,83.64
2023-02-02T00:39:57.313Z,83.77
2023-02-02T00:42:29.080Z,83.66
2023-02-02T00:45:18.674Z,83.85
2023-02-02T00:47:51.411Z,83.75
2023-02-02T00:50:23.719Z,83.97
2023-02-02T00:52:55.436Z,83.97
2023-02-02T00:55:26.607Z,84.03
2023-02-02T00:57:58.494Z,83.91
2023-02-02T01:00:30.549Z,84.16
2023-02-02T01:03:04.339Z,83.97
2023-02-02T01:05:36.734Z,83.89
2023-02-02T01:08:08.970Z,83.95
2023-02-02T01:10:40.595Z,84.02
2023-02-02T01:13:12.443Z,84.06
2023-02-02T01:15:42.615Z,84.20
2023-02-02T01:18:15.463Z,84.00
2023-02-02T01:20:45.615Z,84.03
2023-02-02T01:23:17.225Z,83.78
2023-02-02T01:25:53.672Z,84.03
2023-02-02T01:28:26.106Z,83.91
2023-02-02T01:31:00.325Z,83.98
2023-02-02T01:33:32.026Z,84.10
2023-02-02T01:36:04.764Z,84.16
2023-02-02T01:38:36.619Z,83.98
2023-02-02T01:41:09.318Z,84.21
2023-02-02T01:43:56.734Z,84.20
2023-02-02T01:46:31.459Z,84.19
2023-02-02T01:49:08.363Z,84.23
2023-02-02T01:51:45.389Z,84.14
2023-02-02T01:54:21.412Z,84.26
2023-02-02T01:56:57.211Z,84.26
2023-02-02T01:59:29.849Z,84.23
2023-02-02T02:02:02.578Z,84.23
2023-02-02T02:04:35.027Z,84.24
2023-02-02T02:07:08.083Z,84.27
2023-02-02T02:09:41.063Z,84.25
2023-02-02T02:12:15.415Z,84.29
2023-02-02T02:15:07.998Z,84.07
2023-02-02T02:17:50.640Z,84.25
2023-02-02T02:21:06.631Z,84.35
2023-02-02T02:24:30.010Z,84.42
2023-02-02T02:27:15.402Z,84.20
2023-02-02T02:30:10.761Z,84.25
2023-02-02T02:32:51.968Z,84.37
2023-02-02T02:35:34.199Z,84.41
2023-02-02T02:38:10.723Z,84.55
2023-02-02T02:40:48.395Z,84.51
2023-02-02T02:43:25.088Z,84.37
2023-02-02T02:45:58.488Z,84.48
2023-02-02T02:48:31.302Z,84.53
2023-02-02T02:51:10.283Z,84.59
2023-02-02T02:53:42.691Z,84.61
2023-02-02T02:56:21.852Z,84.69
2023-02-02T02:59:02.512Z,84.62
2023-02-02T03:01:40.195Z,84.59
2023-02-02T03:04:19.454Z,84.58
2023-02-02T03:06:55.976Z,84.65
2023-02-02T03:09:32.713Z,84.53
2023-02-02T03:12:05.023Z,84.49
2023-02-02T03:14:39.392Z,84.62
2023-02-02T03:17:11.008Z,84.58
2023-02-02T03:19:41.103Z,84.52
2023-02-02T03:22:12.719Z,84.36
2023-02-02T03:24:42.797Z,84.39
2023-02-02T03:27:14.472Z,84.35
2023-02-02T03:29:44.589Z,84.49
2023-02-02T03:32:16.261Z,84.44
2023-02-02T03:34:46.481Z,84.43
2023-02-02T03:37:18.800Z,84.47
2023-02-02T03:39:50.411Z,84.41
2023-02-02T03:42:20.498Z,84.37
2023-02-02T03:44:52.194Z,84.42
2023-02-02T03:47:22.324Z,84.50
2023-02-02T03:49:53.968Z,84.30
2023-02-02T03:52:24.065Z,84.39
2023-02-02T03:54:55.739Z,84.29
2023-02-02T03:57:25.899Z,84.44
2023-02-02T03:59:57.506Z,84.45
2023-02-02T04:02:27.694Z,84.41
2023-02-02T04:04:59.633Z,84.32
2023-02-02T04:07:31.247Z,84.32
2023-02-02T04:10:01.384Z,84.28
2023-02-02T04:12:33.047Z,84.15
2023-02-02T04:15:05.492Z,84.26
2023-02-02T04:17:37.193Z,84.26
2023-02-02T04:20:09.612Z,84.29
2023-02-02T04:22:41.277Z,84.21
2023-02-02T04:25:11.469Z,84.30
2023-02-02T04:27:43.075Z,84.22
2023-02-02T04:30:13.833Z,84.27
2023-02-02T04:32:45.450Z,83.95
2023-02-02T04:35:15.595Z,84.13
2023-02-02T04:37:47.320Z,84.19
2023-02-02T04:40:17.567Z,84.28
2023-02-02T04:42:49.215Z,84.04
2023-02-02T04:45:19.558Z,84.01
2023-02-02T04:47:51.602Z,83.91
2023-02-02T04:50:23.520Z,83.98
2023-02-02T04:52:55.169Z,84.06
2023-02-02T04:55:26.093Z,84.18
2023-02-02T04:57:57.900Z,84.12
2023-02-02T05:00:28.067Z,84.13
2023-02-02T05:02:59.675Z,84.02
2023-02-02T05:05:29.903Z,84.21
2023-02-02T05:08:01.557Z,84.21
2023-02-02T05:10:31.842Z,84.24
2023-02-02T05:13:03.528Z,84.17
2023-02-02T05:15:33.972Z,84.22
2023-02-02T05:18:05.741Z,84.18
2023-02-02T05:20:37.347Z,84.20
2023-02-02T05:23:07.459Z,84.20
2023-02-02T05:25:39.084Z,84.24
2023-02-02T05:28:09.183Z,84.26
2023-02-02T05:30:42.462Z,84.14
2023-02-02T05:33:14.107Z,84.18
2023-02-02T05:35:45.666Z,84.32
2023-02-02T05:38:18.006Z,84.28
2023-02-02T05:40:50.856Z,84.34
2023-02-02T05:43:25.315Z,84.36
2023-02-02T05:45:57.407Z,84.39
2023-02-02T05:48:29.391Z,84.58
2023-02-02T05:51:04.620Z,84.44
2023-02-02T05:53:36.233Z,84.49
2023-02-02T05:56:08.358Z,84.52
2023-02-02T05:58:40.092Z,84.52
2023-02-02T06:01:10.557Z,84.54
2023-02-02T06:03:42.417Z,84.44
2023-02-02T06:06:14.574Z,84.41
2023-02-02T06:08:46.246Z,84.47
2023-02-02T06:11:17.646Z,84.45
2023-02-02T06:13:49.320Z,84.45
2023-02-02T06:16:19.411Z,84.42
2023-02-02T06:18:51.193Z,84.38
2023-02-02T06:21:23.154Z,84.20
2023-02-02T06:23:54.935Z,84.11
2023-02-02T06:26:27.206Z,84.15
2023-02-02T06:28:59.025Z,84.15
2023-02-02T06:31:30.952Z,84.09
2023-02-02T06:34:02.740Z,84.08
2023-02-02T06:36:32.920Z,84.13
2023-02-02T06:39:05.856Z,84.18
2023-02-02T06:41:37.897Z,84.16
2023-02-02T06:44:09.863Z,84.07
2023-02-02T06:46:41.515Z,84.02
2023-02-02T06:49:11.643Z,84.05
2023-02-02T06:51:43.404Z,83.99
2023-02-02T06:54:15.246Z,84.01
2023-02-02T06:56:46.858Z,83.96
2023-02-02T06:59:17.024Z,83.99
2023-02-02T07:01:51.308Z,83.80
2023-02-02T07:04:23.044Z,83.82
2023-02-02T07:06:53.188Z,83.80
2023-02-02T07:09:24.863Z,83.83
2023-02-02T07:11:54.911Z,83.77
2023-02-02T07:14:27.057Z,83.73
2023-02-02T07:16:58.949Z,83.84
2023-02-02T07:19:29.079Z,84.01
2023-02-02T07:22:00.683Z,83.96
2023-02-02T07:24:30.821Z,83.98
2023-02-02T07:27:02.463Z,83.89
2023-02-02T07:29:32.742Z,83.93
2023-02-02T07:32:04.426Z,83.94
2023-02-02T07:34:34.556Z,84.05
2023-02-02T07:37:06.176Z,83.88
2023-02-02T07:39:36.314Z,83.97
2023-02-02T07:42:08.645Z,83.80
2023-02-02T07:44:40.617Z,84.06
2023-02-02T07:47:10.763Z,84.02
2023-02-02T07:49:42.404Z,84.00
2023-02-02T07:52:12.508Z,84.08
2023-02-02T07:54:44.128Z,84.06
2023-02-02T07:57:14.287Z,84.27
2023-02-02T07:59:45.967Z,84.20
2023-02-02T08:02:16.063Z,84.33
2023-02-02T08:04:48.370Z,84.24
2023-02-02T08:07:21.442Z,84.25
2023-02-02T08:09:53.218Z,84.32
2023-02-02T08:12:26.514Z,84.42
2023-02-02T08:14:59.054Z,84.44
2023-02-02T08:17:30.721Z,84.46
2023-02-02T08:20:00.836Z,84.34
2023-02-02T08:22:33.391Z,84.11
2023-02-02T08:25:05.132Z,84.22
2023-02-02T08:27:37.591Z,84.23
2023-02-02T08:30:13.699Z,84.23
2023-02-02T08:32:45.358Z,84.18
2023-02-02T08:35:15.587Z,84.21
2023-02-02T08:37:50.102Z,84.23
2023-02-02T08:40:25.236Z,84.06
2023-02-02T08:42:57.473Z,83.95
2023-02-02T08:46:01.811Z,83.95
2023-02-02T08:48:21.619Z,83.93
2023-02-02T08:50:58.149Z,83.93
2023-02-02T08:53:30.743Z,83.79
2023-02-02T08:56:04.002Z,83.72
2023-02-02T08:58:36.263Z,83.60
2023-02-02T09:01:10.517Z,83.60
2023-02-02T09:03:42.438Z,83.60
2023-02-02T09:06:16.788Z,83.50
2023-02-02T09:08:49.154Z,83.44
2023-02-02T09:11:21.823Z,83.44
2023-02-02T09:14:01.019Z,83.32
2023-02-02T09:16:33.410Z,83.14
2023-02-02T09:19:10.551Z,83.03
2023-02-02T09:21:42.369Z,83.07
2023-02-02T09:24:13.266Z,83.00
2023-02-02T09:26:45.907Z,82.99
2023-02-02T09:29:18.786Z,82.93
2023-02-02T09:31:50.487Z,82.92
2023-02-02T09:34:22.194Z,82.90
2023-02-02T09:36:52.726Z,82.91
2023-02-02T09:39:25.511Z,82.89
2023-02-02T09:42:31.651Z,82.89
2023-02-02T09:45:07.973Z,82.91
2023-02-02T09:47:55.975Z,82.94
2023-02-02T09:50:42.639Z,82.97
2023-02-02T09:53:21.975Z,82.98
2023-02-02T09:55:56.872Z,83.07
2023-02-02T09:58:33.767Z,83.11
2023-02-02T10:01:09.556Z,83.01
2023-02-02T10:03:46.438Z,82.95
2023-02-02T10:06:29.215Z,83.00
2023-02-02T10:09:09.688Z,83.00
2023-02-02T10:11:47.292Z,82.90
2023-02-02T10:14:24.083Z,82.85
2023-02-02T10:16:58.101Z,82.80
2023-02-02T10:19:30.781Z,82.76
2023-02-02T10:22:11.015Z,82.85
2023-02-02T10:24:42.803Z,82.85
2023-02-02T10:27:17.786Z,82.83
2023-02-02T10:29:57.561Z,82.85
2023-02-02T10:32:35.269Z,82.88
2023-02-02T10:35:22.863Z,82.78
2023-02-02T10:38:00.019Z,82.79
2023-02-02T10:40:43.686Z,82.74
2023-02-02T10:43:48.837Z,82.69
2023-02-02T10:46:24.732Z,82.60
2023-02-02T10:49:12.202Z,82.54
2023-02-02T10:51:50.134Z,82.44
2023-02-02T10:54:54.842Z,82.36
2023-02-02T10:57:45.193Z,82.32
2023-02-02T11:00:23.585Z,82.24
2023-02-02T11:02:56.107Z,82.27
2023-02-02T11:05:47.505Z,82.24
2023-02-02T11:08:22.588Z,82.25
2023-02-02T11:10:56.182Z,82.20
2023-02-02T11:13:31.957Z,82.13
2023-02-02T11:16:32.573Z,82.01
2023-02-02T11:19:28.749Z,81.91
2023-02-02T11:22:02.743Z,81.85
2023-02-02T11:24:41.219Z,81.82
2023-02-02T11:27:19.205Z,81.82
2023-02-02T11:29:53.526Z,81.72
2023-02-02T11:32:32.544Z,81.84
2023-02-02T11:35:23.244Z,81.80
2023-02-02T11:38:10.233Z,81.73
2023-02-02T11:40:45.315Z,81.80
2023-02-02T11:43:26.845Z,81.76
2023-02-02T11:46:03.421Z,81.69
2023-02-02T11:48:38.750Z,81.61
2023-02-02T11:51:21.905Z,81.50
2023-02-02T11:54:06.129Z,81.55
2023-02-02T11:56:39.663Z,81.52
2023-02-02T11:59:30.835Z,81.50
2023-02-02T12:02:28.332Z,81.51
2023-02-02T12:05:37.090Z,81.41
2023-02-02T12:08:12.656Z,81.35
2023-02-02T12:10:49.196Z,80.91
2023-02-02T12:13:31.623Z,80.89
2023-02-02T12:16:14.097Z,80.60
2023-02-02T12:18:59.628Z,80.42
2023-02-02T12:21:41.541Z,80.38
2023-02-02T12:24:29.495Z,80.17
2023-02-02T12:27:16.651Z,79.95
2023-02-02T12:30:03.362Z,79.48
2023-02-02T12:33:09.399Z,79.47
2023-02-02T12:35:57.829Z,79.28
2023-02-02T12:38:43.893Z,78.97
2023-02-02T12:41:27.992Z,78.52
2023-02-02T12:44:09.193Z,78.53
2023-02-02T12:46:51.808Z,78.49
2023-02-02T12:49:53.123Z,78.27
2023-02-02T12:52:40.283Z,78.15
2023-02-02T12:55:23.190Z,78.00
2023-02-02T12:58:07.570Z,77.84
2023-02-02T13:00:58.791Z,77.58
2023-02-02T13:03:42.031Z,77.67
2023-02-02T13:06:41.192Z,77.41
2023-02-02T13:09:19.639Z,77.42
2023-02-02T13:11:57.331Z,77.42
2023-02-02T13:14:34.217Z,77.11
2023-02-02T13:17:11.079Z,77.30
2023-02-02T13:19:46.120Z,77.12
2023-02-02T13:22:22.057Z,76.98
2023-02-02T13:25:01.401Z,76.88
2023-02-02T13:27:33.993Z,76.80
2023-02-02T13:30:14.555Z,76.91
2023-02-02T13:32:48.169Z,76.91
2023-02-02T13:35:24.661Z,76.97
2023-02-02T13:38:04.214Z,76.80
2023-02-02T13:40:39.805Z,76.72
2023-02-02T13:43:24.684Z,76.49
2023-02-02T13:46:07.716Z,76.77
2023-02-02T13:48:49.383Z,76.73
2023-02-02T13:51:43.497Z,76.30
2023-02-02T13:55:02.558Z,76.32
2023-02-02T14:00:46.013Z,76.18
2023-02-02T14:03:39.703Z,76.07
2023-02-02T14:06:15.163Z,76.24
2023-02-02T14:08:52.673Z,76.08
2023-02-02T14:11:29.879Z,75.51
2023-02-02T14:14:28.782Z,75.81
2023-02-02T14:17:01.263Z,75.74
2023-02-02T14:19:51.042Z,75.73
2023-02-02T14:22:47.931Z,75.45
2023-02-02T14:25:55.313Z,75.43
2023-02-02T14:28:45.387Z,75.44
2023-02-02T14:31:31.535Z,75.54
2023-02-02T14:34:30.508Z,75.56
2023-02-02T14:37:29.721Z,75.72
2023-02-02T14:40:19.870Z,75.64
2023-02-02T14:43:21.783Z,75.68
2023-02-02T14:46:32.948Z,75.85
2023-02-02T14:49:26.100Z,75.84
2023-02-02T14:52:05.223Z,75.88
2023-02-02T14:54:41.109Z,75.31
2023-02-02T14:57:28.229Z,75.27
2023-02-02T15:00:01.877Z,75.40
2023-02-02T15:02:37.433Z,75.20
2023-02-02T15:05:46.205Z,75.16
2023-02-02T15:08:25.531Z,75.12
2023-02-02T15:11:26.548Z,74.52
2023-02-02T15:14:17.004Z,74.00
2023-02-02T15:16:49.169Z,74.00
2023-02-02T15:19:32.293Z,73.55
2023-02-02T15:22:17.460Z,73.80
2023-02-02T15:24:50.345Z,73.94
2023-02-02T15:27:24.844Z,73.84
2023-02-02T15:30:02.553Z,73.65
2023-02-02T15:32:35.441Z,73.95
2023-02-02T15:35:18.851Z,73.69
2023-02-02T15:37:55.465Z,73.52
2023-02-02T15:40:29.125Z,73.57
2023-02-02T15:43:05.214Z,74.05
2023-02-02T15:45:43.543Z,74.12
2023-02-02T15:48:25.514Z,74.45
2023-02-02T15:50:58.780Z,74.36
2023-02-02T15:53:34.945Z,74.28
2023-02-02T15:56:21.999Z,73.94
2023-02-02T15:58:56.247Z,73.76
2023-02-02T16:01:33.552Z,73.66
2023-02-02T16:04:18.074Z,73.64
2023-02-02T16:06:50.973Z,73.25
2023-02-02T16:09:27.927Z,72.69
2023-02-02T16:12:01.412Z,72.54
2023-02-02T16:14:36.293Z,72.42
2023-02-02T16:17:20.651Z,72.33
2023-02-02T16:19:57.989Z,72.09
2023-02-02T16:22:30.964Z,72.21
2023-02-02T16:25:11.410Z,72.39
2023-02-02T16:27:49.611Z,72.57
2023-02-02T16:30:28.928Z,72.38
2023-02-02T16:33:20.938Z,72.54
2023-02-02T16:35:51.258Z,73.06
2023-02-02T16:38:31.180Z,73.13
2023-02-02T16:41:08.407Z,72.70
2023-02-02T16:43:41.964Z,72.50
2023-02-02T16:46:17.653Z,72.59
2023-02-02T16:49:15.713Z,72.67
2023-02-02T16:51:49.348Z,72.80
2023-02-02T16:54:24.009Z,72.74
2023-02-02T16:57:03.114Z,72.66
2023-02-02T16:59:38.076Z,72.78
2023-02-02T17:02:22.120Z,72.59
2023-02-02T17:04:58.335Z,72.84
2023-02-02T17:07:32.820Z,72.38
2023-02-02T17:10:24.912Z,72.66
2023-02-02T17:12:56.948Z,72.86
2023-02-02T17:15:34.816Z,72.79
2023-02-02T17:18:07.638Z,72.82
2023-02-02T17:20:40.673Z,72.74
2023-02-02T17:23:19.511Z,72.31
2023-02-02T17:25:51.162Z,72.55
2023-02-02T17:28:22.305Z,71.84
2023-02-02T17:30:58.976Z,72.13
2023-02-02T17:33:34.389Z,72.02
2023-02-02T17:36:07.558Z,72.00
2023-02-02T17:38:39.942Z,72.15
2023-02-02T17:41:15.257Z,72.47
2023-02-02T17:43:48.541Z,72.37
2023-02-02T17:46:20.683Z,72.46
2023-02-02T17:48:52.826Z,72.47
2023-02-02T17:51:25.008Z,72.45
2023-02-02T17:53:59.985Z,72.21
2023-02-02T17:56:31.980Z,72.32
2023-02-02T17:59:03.743Z,72.08
2023-02-02T18:01:39.244Z,72.19
2023-02-02T18:04:15.324Z,72.24
2023-02-02T18:06:46.964Z,72.05
2023-02-02T18:09:17.377Z,72.24
2023-02-02T18:11:49.979Z,72.47
2023-02-02T18:14:23.059Z,72.23
2023-02-02T18:16:56.140Z,72.11
2023-02-02T18:19:28.009Z,72.40
2023-02-02T18:21:59.678Z,72.32
2023-02-02T18:24:29.951Z,72.48
2023-02-02T18:27:01.662Z,72.61
2023-02-02T18:29:34.099Z,72.53
2023-02-02T18:32:06.421Z,72.69
2023-02-02T18:34:38.264Z,72.81
2023-02-02T18:37:10.029Z,72.83
2023-02-02T18:39:42.191Z,72.96
2023-02-02T18:43:09.177Z,73.03
2023-02-02T18:45:40.926Z,73.20
2023-02-02T18:48:11.238Z,73.19
2023-02-02T18:50:43.217Z,73.31
2023-02-02T18:53:17.747Z,73.43
2023-02-02T18:55:50.273Z,73.41
2023-02-02T18:58:21.950Z,73.50
2023-02-02T19:00:53.660Z,73.46
2023-02-02T19:03:25.875Z,73.58
2023-02-02T19:06:14.913Z,73.55
2023-02-02T19:08:46.748Z,73.57
2023-02-02T19:11:21.448Z,73.68
2023-02-02T19:13:53.307Z,73.85
2023-02-02T19:16:28.316Z,73.84
2023-02-02T19:19:05.323Z,73.91
2023-02-02T19:21:36.980Z,74.05
2023-02-02T19:24:14.701Z,73.91
2023-02-02T19:26:50.569Z,73.99
2023-02-02T19:29:25.135Z,74.15
2023-02-02T19:32:03.030Z,74.13
2023-02-02T19:34:36.191Z,74.21
2023-02-02T19:37:24.386Z,74.26
2023-02-02T19:40:03.583Z,74.46
2023-02-02T19:42:35.784Z,74.98
2023-02-02T19:45:23.222Z,75.83
2023-02-02T19:47:57.407Z,76.94
2023-02-02T19:50:37.621Z,77.58
2023-02-02T19:53:17.328Z,78.10
2023-02-02T19:55:49.704Z,78.52
2023-02-02T19:58:24.127Z,78.70
2023-02-02T20:00:57.877Z,78.69
2023-02-02T20:03:37.438Z,79.00
2023-02-02T20:06:13.427Z,79.12
2023-02-02T20:08:46.600Z,79.25
2023-02-02T20:11:32.942Z,79.27
2023-02-02T20:14:22.577Z,79.17
2023-02-02T20:16:59.465Z,79.22
2023-02-02T20:19:37.047Z,79.17
2023-02-02T20:22:23.897Z,79.15
2023-02-02T20:24:56.743Z,79.02
2023-02-02T20:27:30.901Z,78.95
2023-02-02T20:30:19.626Z,78.91
2023-02-02T20:32:55.423Z,78.83
2023-02-02T20:35:36.195Z,78.77
2023-02-02T20:38:21.568Z,78.71
2023-02-02T20:40:54.044Z,78.68
2023-02-02T20:43:25.787Z,78.57
2023-02-02T20:45:57.463Z,78.53
2023-02-02T20:48:27.677Z,78.49
2023-02-02T20:50:59.359Z,78.33
2023-02-02T20:53:31.098Z,78.32
2023-02-02T20:56:02.893Z,78.31
2023-02-02T20:58:34.697Z,78.24
2023-02-02T21:01:06.455Z,78.28
2023-02-02T21:03:38.145Z,78.17
2023-02-02T21:06:08.365Z,78.22
2023-02-02T21:08:40.263Z,78.10
2023-02-02T21:11:12.012Z,78.12
2023-02-02T21:13:43.680Z,78.01
2023-02-02T21:16:13.871Z,78.03
2023-02-02T21:18:47.399Z,77.96
2023-02-02T21:21:21.016Z,77.92
2023-02-02T21:23:53.475Z,77.82
2023-02-02T21:26:30.067Z,77.76
2023-02-02T21:29:01.843Z,77.73
2023-02-02T21:31:35.767Z,77.72
2023-02-02T21:34:08.948Z,77.70
2023-02-02T21:36:44.014Z,77.72
2023-02-02T21:39:21.546Z,77.80
2023-02-02T21:41:59.249Z,77.80
2023-02-02T21:44:33.095Z,77.87
2023-02-02T21:47:16.783Z,77.96
2023-02-02T21:49:48.935Z,78.00
2023-02-02T21:52:21.864Z,78.09
2023-02-02T21:54:53.552Z,78.12
2023-02-02T21:57:26.225Z,78.17
2023-02-02T21:59:58.561Z,78.10
2023-02-02T22:02:42.544Z,78.15
2023-02-02T22:05:22.754Z,78.19
2023-02-02T22:07:57.702Z,78.17
2023-02-02T22:10:39.560Z,78.15
2023-02-02T22:13:14.909Z,78.17
2023-02-02T22:15:47.720Z,78.10
2023-02-02T22:18:21.676Z,78.16
2023-02-02T22:20:56.424Z,78.26
2023-02-02T22:23:29.831Z,78.34
2023-02-02T22:26:01.822Z,78.47
2023-02-02T22:28:40.458Z,78.51
2023-02-02T22:31:12.730Z,78.55
2023-02-02T22:33:44.514Z,78.66
2023-02-02T22:36:14.626Z,78.73
2023-02-02T22:38:46.546Z,78.66
2023-02-02T22:41:18.427Z,78.82
2023-02-02T22:43:50.276Z,78.72
2023-02-02T22:46:21.989Z,78.69
2023-02-02T22:48:52.143Z,78.72
2023-02-02T22:51:23.777Z,78.56
2023-02-02T22:53:53.919Z,78.63
2023-02-02T22:56:26.152Z,78.49
2023-02-02T22:58:57.755Z,78.48
2023-02-02T23:01:29.454Z,78.48
2023-02-02T23:03:59.619Z,78.53
2023-02-02T23:06:31.417Z,78.51
2023-02-02T23:09:04.659Z,78.35
2023-02-02T23:11:34.798Z,78.30
2023-02-02T23:14:06.403Z,78.35
2023-02-02T23:16:36.531Z,78.35
2023-02-02T23:19:08.221Z,78.32
2023-02-02T23:21:38.334Z,78.47
2023-02-02T23:24:12.141Z,78.35
2023-02-02T23:26:43.958Z,78.34
2023-02-02T23:29:15.758Z,78.41
2023-02-02T23:31:47.488Z,78.36
2023-02-02T23:34:19.753Z,78.10
2023-02-02T23:36:53.553Z,78.05
2023-02-02T23:39:25.517Z,78.18
2023-02-02T23:41:57.169Z,78.22
2023-02-02T23:44:27.263Z,78.03
2023-02-02T23:46:59.971Z,78.08
2023-02-02T23:49:33.881Z,78.18
2023-02-02T23:52:06.016Z,78.25
2023-02-02T23:54:37.898Z,78.34
2023-02-02T23:57:09.666Z,78.24
2023-02-02T23:59:41.400Z,78.29
